Airfield :
LOGIN :

Register | Disclaimer

   EN    FR    IT 

 










Legend :    VFR   Marginal VFR   IFR   Intensive IFR   Very Intensive IFR
Visi :
Ceiling :
>= 8 km
>= 3000ft
5 to 8 km
1000 to 3000 ft
1500m to 5 km
500 to 1000 ft
800 to 1500m
200 to 500 ft
< 800m
< 200 ft
Symbols :   Thunderstorms  Fog  Heavy snow  Heavy precipitations  Wind > 20 kt
SIGMETs :     Misc.  Thunderstorms  Icing  Turbulence  Mountain Waves  Volcanic Ashes







- Airport Elevation : 154 ft
- IATA code : SZZ


EPSC - Szczecin Goleniow

CURRENT METAR :
  • 210830Z 26003KT 210V290 9999 FEW031 12/10 Q1014

EXPIRED METARs :
  • 210800Z 25003KT 220V290 9999 SCT019 BKN033 11/10 Q1014
  • 210730Z 24004KT 210V270 8000 BKN019 11/10 Q1014
  • 210700Z 20003KT 7000 BKN016 10/10 Q1014
  • 210630Z 21003KT 180V240 6000 BKN014 10/09 Q1013
  • 210600Z 21003KT 190V250 4000 MIFG BR BKN015 08/08 Q1013
  • 210530Z 22003KT 3000 MIFG BR FEW016 08/07 Q1013

TAF AMD TAF EPSC
Valid from the 21 at 06:00 until the 22 at 06:00 UTC


210627Z 2106/2206 25010KT 9999 BKN014
BECMG 2107/2109 SCT020
BECMG 2114/2117 18005KT
TEMPO 2200/2206 3000 -RADZ BKN004
No reported NOTAMs for that airfield.



MET'MAP, your aeronautical weather chart ! - Copyright ORBIFLY December 2007 - Disclaimer

ORBIFLY MET'MAP TEAM :

Programming & Development : Alexandra Zaïnal
Concept & Development : Baudouin d'Aumeries
Co-Development & Prog : Marc-Olivier Méhu
Technical & hardware support : Manuel Goepfert

Contact : metmap@orbifly.com




SOURCES & CREDITS :

   NOAA